Time;durP1;ratioP1;P1;durP2;ratioP2;P2;SDS_P1;SDS_P2;PMS_P1;PMS_P2;Temp;Humidity;BMP_temperature;BMP_pressure;BME280_temperature;BME280_humidity;BME280_pressure;Samples;Min_cycle;Max_cycle;Signal;HPM_P1;HPM_P2
2022/11/15 00:00:20;;;;;;;23.45;11.85;;;6.60;99.90;;;;;;4233945;27;20047;-87
2022/11/15 00:02:21;;;;;;;23.42;11.30;;;8.10;99.90;;;;;;4228341;28;20130;-85
2022/11/15 00:04:22;;;;;;;22.48;11.50;;;7.90;99.90;;;;;;4244416;27;20431;-85
2022/11/15 00:06:23;;;;;;;23.40;12.02;;;8.70;99.90;;;;;;4248591;27;20035;-85
2022/11/15 00:08:24;;;;;;;24.33;11.63;;;8.00;99.90;;;;;;4231477;28;20135;-85
2022/11/15 00:10:24;;;;;;;26.15;12.07;;;8.50;99.90;;;;;;4229958;28;20085;-86
2022/11/15 00:12:28;;;;;;;23.85;11.50;;;8.30;99.90;;;;;;4250011;27;20376;-85
2022/11/15 00:14:28;;;;;;;26.25;12.25;;;7.90;99.90;;;;;;4249760;27;20043;-85
2022/11/15 00:16:29;;;;;;;24.20;11.95;;;7.90;99.90;;;;;;4249840;27;20126;-86
2022/11/15 00:18:30;;;;;;;21.48;11.60;;;7.90;99.90;;;;;;4249489;27;20067;-85
2022/11/15 00:20:35;;;;;;;24.08;11.52;;;7.90;99.90;;;;;;4230680;28;20494;-85
2022/11/15 00:22:36;;;;;;;23.63;11.23;;;7.80;99.90;;;;;;4248246;27;20039;-85
2022/11/15 00:24:37;;;;;;;21.80;11.07;;;7.70;99.90;;;;;;4248561;27;20043;-85
2022/11/15 00:26:38;;;;;;;22.73;11.40;;;7.70;99.90;;;;;;4226461;28;20039;-85
2022/11/15 00:28:40;;;;;;;24.70;11.63;;;7.60;99.90;;;;;;4247761;27;20071;-86
2022/11/15 00:30:40;;;;;;;24.63;12.02;;;7.70;99.90;;;;;;4249448;27;20168;-86
2022/11/15 00:32:41;;;;;;;22.35;11.85;;;7.70;99.90;;;;;;4249737;27;20047;-86
2022/11/15 00:34:42;;;;;;;20.80;10.73;;;7.50;99.90;;;;;;4214723;28;20127;-86
2022/11/15 00:36:43;;;;;;;24.95;11.95;;;7.60;99.90;;;;;;4249568;28;20088;-86
2022/11/15 00:38:43;;;;;;;22.35;11.45;;;6.30;99.90;;;;;;4250126;27;20035;-85
2022/11/15 00:40:44;;;;;;;25.35;12.35;;;7.50;99.90;;;;;;4249847;28;20050;-85
2022/11/15 00:42:45;;;;;;;22.15;10.77;;;7.50;99.90;;;;;;4250095;28;20035;-84
2022/11/15 00:44:46;;;;;;;23.02;11.38;;;7.40;99.90;;;;;;4245901;28;20035;-85
2022/11/15 00:46:47;;;;;;;25.20;11.63;;;7.40;99.90;;;;;;4249756;28;20079;-84
2022/11/15 00:48:48;;;;;;;23.30;12.07;;;7.40;99.90;;;;;;4248277;27;20039;-85
2022/11/15 00:50:49;;;;;;;25.95;12.20;;;7.40;99.90;;;;;;4233831;28;20040;-85
2022/11/15 00:52:51;;;;;;;23.48;11.30;;;7.30;99.90;;;;;;4252104;27;20442;-86
2022/11/15 00:54:52;;;;;;;26.40;11.88;;;7.50;99.90;;;;;;4233828;28;20123;-86
2022/11/15 00:56:53;;;;;;;27.80;13.15;;;7.30;99.90;;;;;;4251022;27;20040;-86
2022/11/15 00:58:53;;;;;;;21.25;11.25;;;7.50;99.90;;;;;;4251582;27;20031;-86
2022/11/15 01:00:54;;;;;;;23.35;11.63;;;7.30;99.90;;;;;;4211964;28;20043;-86
2022/11/15 01:02:56;;;;;;;23.70;11.63;;;7.40;99.90;;;;;;4251408;27;20099;-85
2022/11/15 01:04:57;;;;;;;25.63;12.15;;;7.40;99.90;;;;;;4250924;27;20049;-85
2022/11/15 01:06:58;;;;;;;22.95;11.05;;;7.40;99.90;;;;;;4232462;28;20536;-86
2022/11/15 01:08:58;;;;;;;22.55;11.15;;;7.50;99.90;;;;;;4250998;27;20079;-86
2022/11/15 01:11:05;;;;;;;22.65;11.00;;;7.50;99.90;;;;;;4232421;28;20059;-86
2022/11/15 01:13:05;;;;;;;23.92;11.80;;;7.30;99.90;;;;;;4237226;27;20062;-84
2022/11/15 01:15:07;;;;;;;23.40;11.48;;;7.40;99.90;;;;;;4232321;28;20402;-85
2022/11/15 01:17:08;;;;;;;22.70;10.63;;;7.50;99.90;;;;;;4210430;28;20412;-85
2022/11/15 01:19:08;;;;;;;23.52;10.93;;;7.50;99.90;;;;;;4248137;27;20024;-86
2022/11/15 01:21:11;;;;;;;24.02;12.18;;;7.40;99.90;;;;;;4250355;27;20047;-85
2022/11/15 01:23:12;;;;;;;22.55;11.48;;;7.40;99.90;;;;;;4250534;27;20491;-85
2022/11/15 01:25:14;;;;;;;21.40;11.20;;;7.40;99.90;;;;;;4232127;28;20046;-85
2022/11/15 01:27:16;;;;;;;26.38;11.55;;;7.50;99.90;;;;;;4215322;28;20044;-85
2022/11/15 01:29:17;;;;;;;19.88;10.70;;;7.50;99.90;;;;;;4231961;28;20044;-85
2022/11/15 01:31:20;;;;;;;23.90;11.70;;;7.30;99.90;;;;;;4232357;28;20131;-86
2022/11/15 01:33:20;;;;;;;25.10;11.20;;;7.20;99.90;;;;;;4250578;27;20039;-86
2022/11/15 01:35:21;;;;;;;20.08;11.15;;;7.30;99.90;;;;;;4250366;27;20042;-85
2022/11/15 01:37:22;;;;;;;20.55;10.90;;;7.10;99.90;;;;;;4213171;28;20458;-86
2022/11/15 01:39:23;;;;;;;21.55;11.30;;;7.20;99.90;;;;;;4231975;28;20036;-86
2022/11/15 01:41:27;;;;;;;22.55;10.52;;;7.20;99.90;;;;;;4229547;28;20566;-86
2022/11/15 01:43:32;;;;;;;20.90;10.70;;;7.30;99.90;;;;;;4231522;28;20051;-86
2022/11/15 01:45:33;;;;;;;21.45;11.57;;;7.20;99.90;;;;;;4231705;28;20048;-86
2022/11/15 01:47:40;;;;;;;24.15;11.25;;;7.20;99.90;;;;;;4250151;27;20404;-86
2022/11/15 01:49:52;;;;;;;22.35;10.90;;;7.20;99.90;;;;;;4214711;28;20103;-86
2022/11/15 01:51:54;;;;;;;25.35;12.93;;;7.30;99.90;;;;;;4243021;27;20043;-86
2022/11/15 01:53:58;;;;;;;23.17;10.85;;;7.20;99.90;;;;;;4245491;27;20040;-86
2022/11/15 01:56:06;;;;;;;25.20;12.27;;;7.30;99.90;;;;;;4232564;28;20052;-85
2022/11/15 01:58:08;;;;;;;24.70;12.57;;;7.20;99.90;;;;;;4226908;28;20428;-86
2022/11/15 02:00:09;;;;;;;21.63;11.57;;;7.20;99.90;;;;;;4250426;27;20054;-85
2022/11/15 02:02:11;;;;;;;25.65;12.57;;;7.30;99.90;;;;;;4231094;28;20059;-85
2022/11/15 02:04:18;;;;;;;22.98;11.40;;;7.30;99.90;;;;;;4250473;27;20092;-85
2022/11/15 02:06:21;;;;;;;24.80;12.45;;;8.30;99.90;;;;;;4232055;28;20521;-85
2022/11/15 02:08:21;;;;;;;26.35;11.80;;;7.40;99.90;;;;;;4232205;28;20062;-86
2022/11/15 02:10:23;;;;;;;25.15;11.73;;;7.30;99.90;;;;;;4250471;27;20047;-85
2022/11/15 02:12:24;;;;;;;27.77;12.05;;;7.40;99.90;;;;;;4232547;28;20051;-86
2022/11/15 02:14:27;;;;;;;22.30;11.23;;;7.40;99.90;;;;;;4236902;27;20150;-85
2022/11/15 02:16:34;;;;;;;26.08;12.15;;;7.40;99.90;;;;;;4251386;27;20568;-85
2022/11/15 02:18:41;;;;;;;25.55;10.38;;;7.30;99.90;;;;;;4250570;27;20067;-85
2022/11/15 02:21:02;;;;;;;25.50;11.68;;;7.40;99.90;;;;;;4250039;27;20431;-85
2022/11/15 02:23:18;;;;;;;24.10;11.18;;;7.50;99.90;;;;;;4250376;27;20039;-85
2022/11/15 02:25:41;;;;;;;19.85;10.75;;;7.40;99.90;;;;;;4232517;28;20130;-85
2022/11/15 02:27:57;;;;;;;23.15;10.15;;;7.50;99.90;;;;;;4231876;28;20073;-85
2022/11/15 02:30:02;;;;;;;21.90;10.38;;;7.40;99.90;;;;;;4250425;27;20050;-85
2022/11/15 02:32:10;;;;;;;21.80;9.93;;;7.40;99.90;;;;;;4232003;28;20469;-85
2022/11/15 02:34:52;;;;;;;26.98;10.38;;;7.40;99.90;;;;;;4209310;28;21034;-85
2022/11/15 02:37:25;;;;;;;25.30;10.43;;;7.40;99.90;;;;;;4231978;28;20134;-85
2022/11/15 02:39:40;;;;;;;23.25;10.80;;;7.40;99.90;;;;;;4231689;28;20043;-85
2022/11/15 02:41:54;;;;;;;23.15;10.43;;;7.40;99.90;;;;;;4231790;28;20098;-86
2022/11/15 02:43:58;;;;;;;25.42;11.00;;;7.40;99.90;;;;;;4232098;28;20460;-85
2022/11/15 02:48:48;;;;;;;26.83;10.65;;;7.20;99.90;;;;;;4249877;27;20047;-86
2022/11/15 02:50:51;;;;;;;24.52;10.88;;;7.30;99.90;;;;;;4227736;28;20531;-86
2022/11/15 02:52:52;;;;;;;27.88;11.13;;;7.40;99.90;;;;;;4249912;27;20046;-85
2022/11/15 02:54:58;;;;;;;26.17;11.20;;;7.30;99.90;;;;;;4249949;27;20046;-86
2022/11/15 02:57:13;;;;;;;21.75;10.23;;;7.30;99.90;;;;;;4250620;27;20043;-85
2022/11/15 02:59:27;;;;;;;29.98;12.38;;;7.70;99.90;;;;;;4216594;28;20123;-86
2022/11/15 03:01:30;;;;;;;24.05;11.18;;;7.30;99.90;;;;;;4233575;28;20111;-88
2022/11/15 03:03:37;;;;;;;28.23;11.15;;;7.40;99.90;;;;;;4251456;27;20039;-86
2022/11/15 03:05:50;;;;;;;32.17;12.60;;;7.30;99.90;;;;;;4233714;28;20361;-86
2022/11/15 03:08:18;;;;;;;33.22;11.50;;;7.40;99.90;;;;;;4229284;28;20044;-86
2022/11/15 03:10:29;;;;;;;28.45;12.38;;;7.40;99.90;;;;;;4227967;28;20052;-85
2022/11/15 03:12:45;;;;;;;31.88;12.50;;;7.40;99.90;;;;;;4232700;28;20151;-84
2022/11/15 03:15:00;;;;;;;33.15;13.05;;;7.40;99.90;;;;;;4233681;28;20039;-85
2022/11/15 03:17:06;;;;;;;31.25;13.50;;;7.40;99.90;;;;;;4230790;28;20059;-88
2022/11/15 03:19:17;;;;;;;29.88;11.43;;;7.40;99.90;;;;;;4230742;28;20051;-85
2022/11/15 03:21:19;;;;;;;26.63;12.50;;;7.30;99.90;;;;;;4230937;28;20055;-85
2022/11/15 03:23:22;;;;;;;30.00;12.85;;;7.40;99.90;;;;;;4232235;28;20407;-85
2022/11/15 03:25:28;;;;;;;26.50;11.77;;;7.40;99.90;;;;;;4230968;28;20081;-85
2022/11/15 03:27:34;;;;;;;26.90;11.30;;;7.40;99.90;;;;;;4230774;28;20055;-85
2022/11/15 03:29:41;;;;;;;26.80;11.38;;;7.40;99.90;;;;;;4230906;28;20051;-85
2022/11/15 03:31:48;;;;;;;29.63;11.73;;;7.40;99.90;;;;;;4231578;28;20108;-85
2022/11/15 03:33:52;;;;;;;30.98;12.32;;;7.40;99.90;;;;;;4231805;28;20043;-85
2022/11/15 03:35:55;;;;;;;29.77;11.80;;;7.50;99.90;;;;;;4230939;28;20078;-86
2022/11/15 03:38:05;;;;;;;27.45;11.15;;;7.50;99.90;;;;;;4230836;28;20083;-86
2022/11/15 03:40:06;;;;;;;27.75;12.18;;;6.60;99.90;;;;;;4230902;28;20066;-85
2022/11/15 03:42:26;;;;;;;26.83;12.02;;;7.50;99.90;;;;;;4232358;28;20047;-85
2022/11/15 03:44:48;;;;;;;28.73;11.75;;;7.50;99.90;;;;;;4226659;28;20047;-84
2022/11/15 03:47:14;;;;;;;36.45;12.82;;;7.50;99.90;;;;;;4231656;28;20044;-84
2022/11/15 03:49:25;;;;;;;32.22;12.52;;;7.50;99.90;;;;;;4229658;28;20441;-86
2022/11/15 03:51:26;;;;;;;31.27;12.70;;;7.50;99.90;;;;;;4213810;28;20431;-85
2022/11/15 03:53:28;;;;;;;30.88;12.57;;;7.50;99.90;;;;;;4226113;28;20075;-85
2022/11/15 03:55:31;;;;;;;31.77;13.77;;;7.50;99.90;;;;;;4228873;28;20143;-85
2022/11/15 03:57:32;;;;;;;31.80;11.98;;;7.50;99.90;;;;;;4230665;28;20040;-86
2022/11/15 03:59:32;;;;;;;31.20;13.48;;;7.50;99.90;;;;;;4221524;28;20081;-86
2022/11/15 04:01:33;;;;;;;29.80;11.85;;;7.50;99.90;;;;;;4224891;28;20397;-86
2022/11/15 04:03:34;;;;;;;24.52;12.07;;;7.50;99.90;;;;;;4213081;28;20083;-86
2022/11/15 04:05:35;;;;;;;30.92;12.13;;;7.70;99.90;;;;;;4222154;28;20569;-86
2022/11/15 04:07:35;;;;;;;28.33;11.65;;;7.60;99.90;;;;;;4220076;28;20044;-85
2022/11/15 04:10:01;;;;;;;30.00;11.23;;;7.60;99.90;;;;;;4233781;28;20097;-85
2022/11/15 04:11:57;;;;;;;30.30;11.93;;;7.60;99.90;;;;;;4217513;28;20112;-85
2022/11/15 04:13:59;;;;;;;28.13;11.35;;;7.60;99.90;;;;;;4213003;28;20052;-86
2022/11/15 04:16:00;;;;;;;27.08;11.45;;;7.60;99.90;;;;;;4212685;28;20040;-85
2022/11/15 04:18:00;;;;;;;30.27;12.55;;;7.60;99.90;;;;;;4190559;28;20049;-86
2022/11/15 04:24:45;;;;;;;24.73;10.35;;;7.60;99.90;;;;;;4212232;28;20064;-85
2022/11/15 04:26:46;;;;;;;33.28;12.05;;;7.60;99.90;;;;;;4212611;28;20467;-85
2022/11/15 04:31:06;;;;;;;29.23;12.13;;;7.70;99.90;;;;;;4207030;28;20076;-86
2022/11/15 04:33:07;;;;;;;32.97;12.88;;;7.70;99.90;;;;;;4179887;28;20417;-85
2022/11/15 04:35:09;;;;;;;37.50;13.80;;;7.70;99.90;;;;;;4187073;28;20474;-85
2022/11/15 04:37:13;;;;;;;31.85;12.30;;;7.70;99.90;;;;;;4212890;28;20412;-86
2022/11/15 04:39:14;;;;;;;28.17;11.90;;;7.70;99.90;;;;;;4212295;28;20052;-85
2022/11/15 04:41:14;;;;;;;30.75;12.90;;;7.70;99.90;;;;;;4212334;28;20051;-84
2022/11/15 04:43:15;;;;;;;28.50;13.32;;;7.70;99.90;;;;;;4212518;28;20044;-85
2022/11/15 04:45:16;;;;;;;35.00;13.05;;;7.70;99.90;;;;;;4211934;28;20408;-85
2022/11/15 04:47:16;;;;;;;37.25;13.18;;;7.70;99.90;;;;;;4212387;28;20067;-86
2022/11/15 04:49:17;;;;;;;36.55;12.80;;;7.70;99.90;;;;;;4212579;28;20070;-85
2022/11/15 04:51:18;;;;;;;40.60;14.15;;;7.80;99.90;;;;;;4211176;28;20571;-84
2022/11/15 04:53:20;;;;;;;33.67;13.32;;;7.80;99.90;;;;;;4200571;28;20496;-85
2022/11/15 04:55:21;;;;;;;31.40;11.80;;;7.80;99.90;;;;;;4213520;28;20204;-84
2022/11/15 04:57:22;;;;;;;39.50;13.77;;;7.80;99.90;;;;;;4213753;28;20437;-86
2022/11/15 04:59:25;;;;;;;38.65;13.85;;;7.80;99.90;;;;;;4196063;28;20045;-85
2022/11/15 05:01:26;;;;;;;40.22;12.93;;;7.80;99.90;;;;;;4214803;28;20052;-85
2022/11/15 05:05:48;;;;;;;38.38;14.63;;;7.90;99.90;;;;;;4214612;28;20043;-86
2022/11/15 05:07:50;;;;;;;34.58;14.68;;;7.80;99.90;;;;;;4214483;28;20132;-85
2022/11/15 05:09:51;;;;;;;42.13;14.20;;;7.90;99.90;;;;;;4214479;28;20048;-85
2022/11/15 05:11:52;;;;;;;43.10;14.77;;;7.90;99.90;;;;;;4213626;28;20052;-86
2022/11/15 05:13:53;;;;;;;37.08;13.80;;;7.90;99.90;;;;;;4209291;28;20048;-86
2022/11/15 05:15:53;;;;;;;43.65;16.10;;;7.90;99.90;;;;;;4230385;28;20098;-85
2022/11/15 05:17:59;;;;;;;40.88;14.60;;;7.90;99.90;;;;;;4229852;28;20477;-86
2022/11/15 05:19:59;;;;;;;39.38;15.25;;;8.00;99.90;;;;;;4230489;28;20085;-86
2022/11/15 05:22:01;;;;;;;47.60;15.65;;;8.00;99.90;;;;;;4229684;28;20055;-85
2022/11/15 05:24:03;;;;;;;50.20;15.68;;;8.00;99.90;;;;;;4230726;28;20075;-86
2022/11/15 05:26:06;;;;;;;46.65;15.32;;;8.00;99.90;;;;;;4229529;28;20504;-85
2022/11/15 05:28:08;;;;;;;53.92;15.73;;;8.00;99.90;;;;;;4226065;28;20045;-85
2022/11/15 05:30:09;;;;;;;45.97;15.77;;;8.00;99.90;;;;;;4229436;28;20043;-85
2022/11/15 05:32:12;;;;;;;48.42;16.52;;;8.10;99.90;;;;;;4230715;28;20433;-85
2022/11/15 05:34:13;;;;;;;49.33;15.70;;;8.10;99.90;;;;;;4228838;28;20043;-85
2022/11/15 05:36:40;;;;;;;52.28;14.98;;;8.10;99.90;;;;;;4231472;28;20470;-86
2022/11/15 05:38:42;;;;;;;55.03;15.30;;;8.10;99.90;;;;;;4221114;28;20048;-84
2022/11/15 05:40:42;;;;;;;42.70;15.57;;;8.10;99.90;;;;;;4225673;28;20047;-85
2022/11/15 05:42:45;;;;;;;56.00;16.05;;;8.20;99.90;;;;;;4231456;28;20047;-85
2022/11/15 05:44:49;;;;;;;49.83;15.75;;;8.20;99.90;;;;;;4220349;28;20044;-85
2022/11/15 05:46:53;;;;;;;66.28;18.60;;;8.20;99.90;;;;;;4229077;28;20039;-85
2022/11/15 05:48:56;;;;;;;63.88;17.58;;;8.20;99.90;;;;;;4235751;28;20445;-85
2022/11/15 05:50:58;;;;;;;41.92;15.95;;;8.50;99.90;;;;;;4233355;28;20119;-85
2022/11/15 05:53:00;;;;;;;52.05;17.38;;;8.20;99.90;;;;;;4233782;28;20078;-86
2022/11/15 05:55:02;;;;;;;54.17;16.63;;;8.20;99.90;;;;;;4232335;28;20156;-84
2022/11/15 05:57:04;;;;;;;49.05;16.10;;;8.20;99.90;;;;;;4232379;28;20051;-84
2022/11/15 05:59:07;;;;;;;56.72;17.25;;;8.30;99.90;;;;;;4231900;28;20097;-84
2022/11/15 06:01:09;;;;;;;48.50;17.05;;;8.30;99.90;;;;;;4228084;28;20047;-85
2022/11/15 06:03:10;;;;;;;50.63;16.23;;;8.30;99.90;;;;;;4232185;28;20055;-85
2022/11/15 06:05:11;;;;;;;58.30;16.52;;;8.30;99.90;;;;;;4233106;28;20044;-85
2022/11/15 06:07:11;;;;;;;57.97;18.83;;;8.30;99.90;;;;;;4232684;28;20051;-85
2022/11/15 06:09:12;;;;;;;55.00;17.52;;;8.30;99.90;;;;;;4232963;28;20079;-85
2022/11/15 06:11:13;;;;;;;61.05;18.33;;;8.30;99.90;;;;;;4231629;28;20087;-85
2022/11/15 06:13:14;;;;;;;51.20;17.50;;;8.40;99.90;;;;;;4231828;28;20511;-85
2022/11/15 06:15:14;;;;;;;61.40;18.30;;;8.40;99.90;;;;;;4231798;28;20089;-84
2022/11/15 06:17:15;;;;;;;53.35;17.95;;;8.30;99.90;;;;;;4231530;28;20095;-84
2022/11/15 06:19:17;;;;;;;53.88;17.02;;;8.40;99.90;;;;;;4231966;28;20139;-85
2022/11/15 06:21:17;;;;;;;63.55;19.33;;;8.40;99.90;;;;;;4233079;28;20043;-85
2022/11/15 06:23:18;;;;;;;60.78;17.38;;;8.40;99.90;;;;;;4233271;28;20096;-86
2022/11/15 06:25:19;;;;;;;57.53;18.77;;;8.40;99.90;;;;;;4232263;28;20058;-85
2022/11/15 06:27:19;;;;;;;67.32;18.15;;;8.40;99.90;;;;;;4233848;28;20040;-84
2022/11/15 06:29:21;;;;;;;62.97;19.23;;;8.40;99.90;;;;;;4234684;28;20411;-85
2022/11/15 06:31:22;;;;;;;70.82;19.10;;;8.50;99.90;;;;;;4233893;28;20063;-85
2022/11/15 06:33:22;;;;;;;54.95;17.30;;;8.50;99.90;;;;;;4234948;28;20048;-85
2022/11/15 06:35:23;;;;;;;60.85;18.30;;;8.50;99.90;;;;;;4235677;28;20036;-85
2022/11/15 06:37:24;;;;;;;73.90;21.17;;;8.50;99.90;;;;;;4229208;28;20054;-85
2022/11/15 06:39:26;;;;;;;85.75;22.00;;;8.50;99.90;;;;;;4237010;28;20044;-86
2022/11/15 06:41:27;;;;;;;69.35;20.42;;;8.60;99.90;;;;;;4236940;28;20058;-85
2022/11/15 06:43:28;;;;;;;68.03;19.33;;;8.60;99.90;;;;;;4237539;28;20047;-86
2022/11/15 06:45:28;;;;;;;69.45;19.83;;;8.60;99.90;;;;;;4238695;28;20107;-86
2022/11/15 06:47:29;;;;;;;67.32;19.05;;;8.60;99.90;;;;;;4237047;28;20039;-85
2022/11/15 06:49:30;;;;;;;77.75;19.58;;;8.60;99.90;;;;;;4237559;28;20039;-84
2022/11/15 06:51:30;;;;;;;69.28;19.42;;;8.60;99.90;;;;;;4214439;28;20066;-85
2022/11/15 06:53:32;;;;;;;76.65;19.52;;;8.60;99.90;;;;;;4229923;28;20058;-85
2022/11/15 06:55:32;;;;;;;54.30;18.25;;;8.70;99.90;;;;;;4231021;28;20118;-85
2022/11/15 06:57:33;;;;;;;68.30;19.83;;;8.70;99.90;;;;;;4233853;28;20047;-84
2022/11/15 06:59:35;;;;;;;74.07;20.02;;;8.70;99.90;;;;;;4216354;28;20070;-85
2022/11/15 07:01:35;;;;;;;61.47;19.10;;;8.70;99.90;;;;;;4235122;28;20079;-85
2022/11/15 07:03:38;;;;;;;57.08;18.05;;;8.80;99.90;;;;;;4233860;28;20047;-85
2022/11/15 07:05:39;;;;;;;72.28;20.50;;;8.80;99.90;;;;;;4234461;28;20058;-85
2022/11/15 07:07:40;;;;;;;69.38;20.20;;;8.80;99.90;;;;;;4232677;28;20081;-85
2022/11/15 07:09:40;;;;;;;72.63;21.50;;;8.90;99.90;;;;;;4214348;28;20058;-85
2022/11/15 07:11:41;;;;;;;59.25;19.52;;;8.90;99.90;;;;;;4219147;28;20075;-85
2022/11/15 07:13:42;;;;;;;71.28;20.80;;;8.90;99.90;;;;;;4206516;28;20106;-84
2022/11/15 07:15:42;;;;;;;69.97;21.90;;;9.00;99.90;;;;;;4216594;28;20088;-85
2022/11/15 07:17:43;;;;;;;66.40;19.70;;;9.10;99.90;;;;;;4233287;28;20551;-85
2022/11/15 07:19:44;;;;;;;72.45;22.73;;;9.10;99.90;;;;;;4232021;28;20112;-85
2022/11/15 07:21:46;;;;;;;68.05;21.08;;;9.20;99.90;;;;;;4231954;28;20150;-85
2022/11/15 07:23:49;;;;;;;66.65;19.35;;;9.20;99.90;;;;;;4231363;28;20043;-84
2022/11/15 07:25:49;;;;;;;71.35;20.27;;;9.30;99.90;;;;;;4230819;28;20519;-85
2022/11/15 07:28:00;;;;;;;78.43;22.08;;;9.40;99.90;;;;;;4230940;28;20046;-86
2022/11/15 07:30:02;;;;;;;66.38;20.48;;;9.40;99.90;;;;;;4227375;28;20057;-85
2022/11/15 07:32:03;;;;;;;76.88;20.00;;;9.50;99.90;;;;;;4228252;28;20165;-86
2022/11/15 07:34:04;;;;;;;69.63;21.02;;;9.50;99.90;;;;;;4215941;28;20043;-86
2022/11/15 07:36:06;;;;;;;68.78;22.40;;;9.50;99.90;;;;;;4234619;28;20039;-86
2022/11/15 07:38:07;;;;;;;61.38;21.17;;;9.60;99.90;;;;;;4235540;28;20074;-86
2022/11/15 07:40:08;;;;;;;81.93;21.83;;;9.60;99.90;;;;;;4247641;28;20254;-86
2022/11/15 07:44:33;;;;;;;62.70;19.45;;;9.70;99.90;;;;;;4208968;28;20086;-85
2022/11/15 07:46:34;;;;;;;67.85;18.88;;;9.70;99.90;;;;;;4235984;28;20040;-85
2022/11/15 07:48:39;;;;;;;67.57;22.55;;;9.70;99.90;;;;;;4221127;28;20153;-85
2022/11/15 07:50:42;;;;;;;69.97;19.38;;;9.70;99.90;;;;;;4214045;28;20238;-84
2022/11/15 07:52:43;;;;;;;66.03;18.92;;;9.80;99.90;;;;;;4222548;28;20477;-84
2022/11/15 07:54:43;;;;;;;61.20;20.63;;;9.80;99.90;;;;;;4231205;28;20123;-85
2022/11/15 07:56:44;;;;;;;69.28;22.02;;;9.80;99.90;;;;;;4229996;28;20104;-85
2022/11/15 07:58:46;;;;;;;54.83;20.60;;;9.90;99.90;;;;;;4230942;28;20035;-87
2022/11/15 08:00:46;;;;;;;54.00;18.45;;;9.90;99.90;;;;;;4208723;28;20118;-85
2022/11/15 08:02:47;;;;;;;53.92;19.02;;;9.90;99.90;;;;;;4222158;28;20036;-86
2022/11/15 08:04:48;;;;;;;55.22;20.10;;;9.90;99.90;;;;;;4224657;28;20104;-85
2022/11/15 08:06:48;;;;;;;54.70;18.65;;;10.00;99.90;;;;;;4225605;28;20052;-85
2022/11/15 08:08:49;;;;;;;57.30;18.80;;;10.00;99.90;;;;;;4231967;28;20148;-86
2022/11/15 08:10:50;;;;;;;51.03;18.50;;;10.00;99.90;;;;;;4234014;28;20073;-86
2022/11/15 08:13:08;;;;;;;57.88;18.98;;;10.10;99.90;;;;;;4238859;27;20406;-86
2022/11/15 08:15:10;;;;;;;51.22;17.73;;;10.10;99.90;;;;;;4234322;28;20082;-86
2022/11/15 08:17:10;;;;;;;48.13;16.70;;;10.10;99.90;;;;;;4216348;28;20561;-86
2022/11/15 08:19:11;;;;;;;49.22;19.13;;;10.10;99.90;;;;;;4215342;28;20044;-86
2022/11/15 08:21:17;;;;;;;47.88;16.92;;;10.10;99.90;;;;;;4232935;28;20047;-87
2022/11/15 08:23:20;;;;;;;45.58;17.90;;;10.10;99.90;;;;;;4250042;27;20114;-87
2022/11/15 08:25:22;;;;;;;57.83;17.20;;;10.20;99.90;;;;;;4231023;28;20055;-87
2022/11/15 08:27:23;;;;;;;46.33;16.42;;;10.20;99.90;;;;;;4232634;28;20118;-86
2022/11/15 08:29:24;;;;;;;41.38;16.15;;;10.30;99.90;;;;;;4231660;28;20039;-88
2022/11/15 08:31:24;;;;;;;45.60;16.17;;;10.30;99.90;;;;;;4250544;27;20039;-86
2022/11/15 08:33:26;;;;;;;39.17;16.17;;;10.30;99.90;;;;;;4232178;28;20051;-85
2022/11/15 08:35:28;;;;;;;44.85;16.92;;;10.30;99.90;;;;;;4232920;28;20515;-87
2022/11/15 08:37:28;;;;;;;53.97;16.88;;;10.40;99.90;;;;;;4233424;28;20590;-86
2022/11/15 08:39:29;;;;;;;42.67;15.40;;;10.40;99.90;;;;;;4216376;28;20120;-85
2022/11/15 08:41:33;;;;;;;30.58;14.52;;;10.40;99.90;;;;;;4216319;28;20048;-86
2022/11/15 08:43:33;;;;;;;49.72;17.00;;;10.50;99.90;;;;;;4216501;28;20056;-85
2022/11/15 08:45:35;;;;;;;40.30;15.02;;;10.50;99.90;;;;;;4251379;28;20521;-87
2022/11/15 08:47:36;;;;;;;35.45;15.25;;;10.50;99.90;;;;;;4251453;28;20047;-86
2022/11/15 08:49:36;;;;;;;39.08;13.70;;;10.60;99.90;;;;;;4233446;28;20050;-87
2022/11/15 08:51:37;;;;;;;37.38;14.48;;;10.60;99.90;;;;;;4215707;28;20048;-86
2022/11/15 08:53:38;;;;;;;32.55;13.65;;;10.60;99.90;;;;;;4215459;28;20056;-85
2022/11/15 08:55:39;;;;;;;35.17;13.60;;;10.60;99.90;;;;;;4225783;28;20051;-85
2022/11/15 08:57:41;;;;;;;34.97;13.45;;;10.60;99.90;;;;;;4230859;28;20055;-85
2022/11/15 08:59:42;;;;;;;33.20;13.60;;;10.70;99.90;;;;;;4231008;28;20040;-86
2022/11/15 09:01:43;;;;;;;29.65;13.13;;;10.70;99.90;;;;;;4230525;28;20488;-85
2022/11/15 09:03:44;;;;;;;28.75;13.02;;;10.70;99.90;;;;;;4249451;28;20047;-86
2022/11/15 09:05:45;;;;;;;27.58;12.60;;;10.80;99.90;;;;;;4231112;28;20119;-86
2022/11/15 09:07:46;;;;;;;32.58;13.25;;;10.80;99.90;;;;;;4230967;28;20051;-84
2022/11/15 09:09:47;;;;;;;27.10;12.02;;;10.80;99.90;;;;;;4248311;27;20566;-87
2022/11/15 09:11:48;;;;;;;27.42;11.55;;;10.90;99.90;;;;;;4248570;27;20044;-87
2022/11/15 09:13:49;;;;;;;27.75;13.02;;;10.90;99.90;;;;;;4208872;28;20052;-86
2022/11/15 09:15:50;;;;;;;25.75;12.23;;;11.00;99.90;;;;;;4218705;28;20081;-85
2022/11/15 09:17:51;;;;;;;24.05;11.85;;;11.00;99.90;;;;;;4216043;28;20101;-85
2022/11/15 09:19:53;;;;;;;26.85;13.10;;;11.10;99.90;;;;;;4236136;28;20502;-84
2022/11/15 09:21:54;;;;;;;26.15;11.27;;;11.10;99.90;;;;;;4231122;28;20439;-86
2022/11/15 09:23:55;;;;;;;26.77;10.93;;;11.10;99.90;;;;;;4231465;28;20051;-86
2022/11/15 09:26:01;;;;;;;27.00;12.63;;;11.20;99.90;;;;;;4242955;27;20044;-86
2022/11/15 09:28:06;;;;;;;25.27;12.30;;;11.20;99.90;;;;;;4239531;27;20122;-86
2022/11/15 09:30:07;;;;;;;24.75;11.40;;;11.20;99.90;;;;;;4232648;28;20035;-86
2022/11/15 09:32:09;;;;;;;25.95;11.63;;;11.20;99.90;;;;;;4229174;28;20048;-86
2022/11/15 09:34:11;;;;;;;25.10;11.35;;;11.30;99.90;;;;;;4239468;27;20115;-86
2022/11/15 09:36:12;;;;;;;24.27;11.00;;;11.30;99.90;;;;;;4250417;27;20087;-86
2022/11/15 09:38:13;;;;;;;26.67;11.88;;;11.30;99.90;;;;;;4214712;28;20036;-85
2022/11/15 09:40:17;;;;;;;24.25;11.00;;;11.40;99.90;;;;;;4231759;28;20092;-86
2022/11/15 09:42:40;;;;;;;19.00;9.93;;;11.40;99.90;;;;;;4232049;28;20058;-86
2022/11/15 09:44:45;;;;;;;23.27;9.90;;;11.40;99.90;;;;;;4232184;28;20105;-86
2022/11/15 09:47:06;;;;;;;22.95;11.02;;;11.50;99.90;;;;;;4231755;28;20091;-87
2022/11/15 09:49:11;;;;;;;15.88;9.48;;;11.50;99.90;;;;;;4231936;28;20100;-88
2022/11/15 09:51:25;;;;;;;21.58;10.13;;;11.50;99.90;;;;;;4233094;28;20051;-88
2022/11/15 09:53:41;;;;;;;25.90;10.50;;;11.50;99.90;;;;;;4228385;28;20756;-89
2022/11/15 09:56:01;;;;;;;25.15;9.98;;;11.50;99.90;;;;;;4232158;28;20058;-88
2022/11/15 09:58:25;;;;;;;24.25;10.32;;;11.50;99.90;;;;;;4232375;28;20469;-89
2022/11/15 10:00:38;;;;;;;24.85;9.45;;;11.50;99.90;;;;;;4232543;28;20079;-88
2022/11/15 10:03:11;;;;;;;18.55;10.10;;;11.60;99.90;;;;;;4215809;28;20059;-88
2022/11/15 10:05:16;;;;;;;22.85;10.77;;;11.60;99.90;;;;;;4250665;27;20051;-88
2022/11/15 10:07:36;;;;;;;23.10;10.75;;;11.60;99.90;;;;;;4214772;28;20048;-89
2022/11/15 10:10:04;;;;;;;21.02;10.43;;;11.60;99.90;;;;;;4227872;28;20048;-88
2022/11/15 10:12:06;;;;;;;18.42;9.80;;;11.60;99.90;;;;;;4205454;28;20056;-88
2022/11/15 10:14:20;;;;;;;20.88;10.00;;;11.60;99.90;;;;;;4214774;28;20044;-87
2022/11/15 10:16:59;;;;;;;17.77;9.25;;;11.60;99.90;;;;;;4232261;28;20050;-87
2022/11/15 10:19:14;;;;;;;19.75;9.50;;;11.60;99.90;;;;;;4215225;28;20051;-88
2022/11/15 10:21:23;;;;;;;23.02;9.15;;;11.60;99.90;;;;;;4233327;28;20056;-88
2022/11/15 10:23:24;;;;;;;22.17;9.77;;;11.60;99.90;;;;;;4229519;28;20500;-88
2022/11/15 10:25:26;;;;;;;19.00;8.35;;;11.60;99.90;;;;;;4232349;28;20126;-87
2022/11/15 10:27:27;;;;;;;20.30;9.52;;;11.60;99.90;;;;;;4228972;28;20618;-86
2022/11/15 10:29:27;;;;;;;19.73;9.60;;;11.60;99.90;;;;;;4223494;28;20047;-86
2022/11/15 10:31:29;;;;;;;18.88;9.88;;;11.70;99.90;;;;;;4234000;28;20079;-86
2022/11/15 10:33:33;;;;;;;23.05;8.40;;;11.70;99.90;;;;;;4233788;28;20058;-86
2022/11/15 10:35:35;;;;;;;16.77;9.15;;;11.70;99.90;;;;;;4252847;27;20550;-86
2022/11/15 10:37:35;;;;;;;17.17;8.40;;;11.70;99.90;;;;;;4253932;27;20479;-86
2022/11/15 10:39:36;;;;;;;19.15;8.95;;;11.70;99.90;;;;;;4236686;28;20068;-87
2022/11/15 10:41:40;;;;;;;18.02;8.23;;;11.80;99.90;;;;;;4235941;28;20047;-86
2022/11/15 10:43:41;;;;;;;16.75;8.63;;;11.80;99.90;;;;;;4235353;28;20605;-87
2022/11/15 10:45:42;;;;;;;17.60;9.65;;;11.80;99.90;;;;;;4223602;28;20044;-87
2022/11/15 10:47:42;;;;;;;19.65;9.27;;;11.80;99.90;;;;;;4240722;28;20795;-86
2022/11/15 10:50:13;;;;;;;23.55;9.50;;;11.80;99.90;;;;;;4224909;28;20111;-87